East Bangor, Pennsylvania
Current Conditions -  °F | °C
As of 9:51 PM on Tuesday 25 Nov 2014 (Local Time) from KABE Reporting Station
Clear Clear  
Wind Chill: 37°   Ceiling: Unl
Heat Index: 37°   Visibility: 10mi
Dew Point: 28°   Wind: 3mph
Humidity: 70%   Direction: 320°NW
Pressure: 30.13"   Gusts: NA
Location:  40.8463°N, 75.1731°W
Report Text: KABE 260251Z 32003KT 10SM CLR 03/M02 A3013 RMK AO2 SLP206 T00281022 51017
Loading
Personal Weather Stations






























Interactive Weather Map New forecast layout! Learn more

10-Day Weather Forecast

Advertisements
Track Severe Weather on mobile